createdAt,value
2018-06-17T00:00:36.579Z,996.29
2018-06-17T00:01:46.406Z,996.32
2018-06-17T00:02:56.476Z,996.29
2018-06-17T00:04:06.567Z,996.29
2018-06-17T00:05:16.382Z,996.3
2018-06-17T00:06:26.199Z,996.29
2018-06-17T00:07:36.284Z,996.33
2018-06-17T00:08:46.114Z,996.32
2018-06-17T00:09:55.927Z,996.32
2018-06-17T00:11:06.003Z,996.32
2018-06-17T00:12:15.553Z,996.3
2018-06-17T00:13:25.374Z,996.31
2018-06-17T00:14:35.455Z,996.31
2018-06-17T00:15:45.535Z,996.32
2018-06-17T00:16:55.628Z,996.3
2018-06-17T00:18:05.715Z,996.31
2018-06-17T00:19:15.520Z,996.29
2018-06-17T00:20:25.332Z,996.31
2018-06-17T00:21:35.203Z,996.33
2018-06-17T00:22:45.340Z,996.36
2018-06-17T00:23:55.163Z,996.31
2018-06-17T00:25:05.235Z,996.37
2018-06-17T00:26:15.300Z,996.34
2018-06-17T00:27:25.387Z,996.32
2018-06-17T00:28:35.470Z,996.35
2018-06-17T00:29:45.287Z,996.31
2018-06-17T00:30:55.099Z,996.3
2018-06-17T00:32:04.917Z,996.34
2018-06-17T00:33:14.980Z,996.32
2018-06-17T00:34:25.121Z,996.33
2018-06-17T00:35:35.209Z,996.35
2018-06-17T00:36:45.282Z,996.35
2018-06-17T00:37:55.363Z,996.35
2018-06-17T00:39:05.448Z,996.35
2018-06-17T00:40:15.647Z,996.38
2018-06-17T00:41:25.458Z,996.39
2018-06-17T00:42:35.541Z,996.4
2018-06-17T00:43:45.365Z,996.39
2018-06-17T00:44:55.450Z,996.41
2018-06-17T00:46:05.309Z,996.42
2018-06-17T00:47:15.454Z,996.41
2018-06-17T00:48:25.720Z,996.39
2018-06-17T00:49:35.815Z,996.4
2018-06-17T00:50:45.882Z,996.38
2018-06-17T00:51:56.012Z,996.37
2018-06-17T00:53:05.826Z,996.41
2018-06-17T00:54:15.909Z,996.36
2018-06-17T00:55:25.987Z,996.39
2018-06-17T00:56:35.801Z,996.35
2018-06-17T00:57:45.927Z,996.35
2018-06-17T00:58:56.034Z,996.38
2018-06-17T01:00:05.832Z,996.39
2018-06-17T01:01:15.901Z,996.38
2018-06-17T01:02:25.972Z,996.36
2018-06-17T01:03:36.107Z,996.36
2018-06-17T01:04:46.229Z,996.35
2018-06-17T01:05:56.303Z,996.31
2018-06-17T01:07:06.366Z,996.36
2018-06-17T01:08:16.436Z,996.34
2018-06-17T01:09:26.555Z,996.32
2018-06-17T01:10:36.633Z,996.33
2018-06-17T01:11:46.718Z,996.3
2018-06-17T01:12:56.520Z,996.27
2018-06-17T01:14:06.608Z,996.29
2018-06-17T01:15:16.680Z,996.27
2018-06-17T01:16:26.753Z,996.25
2018-06-17T01:17:36.821Z,996.24
2018-06-17T01:18:46.349Z,996.24
2018-06-17T01:19:56.681Z,996.19
2018-06-17T01:21:06.785Z,996.16
2018-06-17T01:22:16.862Z,996.17
2018-06-17T01:23:26.690Z,996.19
2018-06-17T01:24:36.502Z,996.2
2018-06-17T01:25:46.314Z,996.19
2018-06-17T01:26:56.432Z,996.2
2018-06-17T01:28:06.528Z,996.18
2018-06-17T01:29:16.606Z,996.18
2018-06-17T01:30:26.413Z,996.17
2018-06-17T01:31:36.230Z,996.16
2018-06-17T01:32:46.311Z,996.16
2018-06-17T01:33:56.370Z,996.14
2018-06-17T01:35:06.435Z,996.17
2018-06-17T01:36:16.491Z,996.19
2018-06-17T01:37:26.566Z,996.14
2018-06-17T01:38:36.131Z,996.19
2018-06-17T01:39:46.213Z,996.16
2018-06-17T01:40:56.289Z,996.13
2018-06-17T01:42:06.365Z,996.14
2018-06-17T01:43:16.188Z,996.16
2018-06-17T01:44:26.316Z,996.18
2018-06-17T01:45:36.397Z,996.1
2018-06-17T01:46:46.477Z,996.14
2018-06-17T01:47:56.533Z,996.14
2018-06-17T01:49:06.600Z,996.12
2018-06-17T01:50:16.674Z,996.1
2018-06-17T01:51:26.757Z,996.1
2018-06-17T01:52:36.846Z,996.07
2018-06-17T01:53:46.926Z,996.1
2018-06-17T01:54:56.732Z,996.09
2018-06-17T01:56:06.875Z,996.12
2018-06-17T01:57:16.966Z,996.09
2018-06-17T01:58:27.027Z,996.1
2018-06-17T01:59:37.103Z,996.14
2018-06-17T02:00:47.175Z,996.1
2018-06-17T02:01:56.739Z,996.1
2018-06-17T02:03:06.815Z,996.12
2018-06-17T02:04:16.891Z,996.09
2018-06-17T02:05:26.701Z,996.11
2018-06-17T02:06:36.511Z,996.1
2018-06-17T02:07:46.319Z,996.11
2018-06-17T02:08:56.390Z,996.08
2018-06-17T02:10:06.465Z,996.11
2018-06-17T02:11:16.536Z,996.07
2018-06-17T02:12:26.607Z,996.06
2018-06-17T02:13:36.676Z,996.06
2018-06-17T02:14:46.741Z,996.08
2018-06-17T02:15:56.813Z,996.13
2018-06-17T02:17:06.884Z,996.16
2018-06-17T02:18:16.447Z,996.1
2018-06-17T02:19:26.256Z,996.12
2018-06-17T02:20:36.325Z,996.15
2018-06-17T02:21:46.391Z,996.14
2018-06-17T02:22:56.202Z,996.14
2018-06-17T02:24:06.017Z,996.14
2018-06-17T02:25:16.103Z,996.12
2018-06-17T02:26:25.926Z,996.12
2018-06-17T02:27:35.991Z,996.12
2018-06-17T02:28:45.559Z,996.1
2018-06-17T02:29:55.639Z,996.11
2018-06-17T02:31:05.182Z,996.1
2018-06-17T02:32:15.275Z,996.13
2018-06-17T02:33:25.082Z,996.14
2018-06-17T02:34:35.199Z,996.15
2018-06-17T02:35:45.285Z,996.13
2018-06-17T02:36:55.367Z,996.12
2018-06-17T02:38:05.449Z,996.1
2018-06-17T02:39:15.009Z,996.09
2018-06-17T02:40:25.083Z,996.08
2018-06-17T02:41:35.165Z,996.11
2018-06-17T02:42:44.971Z,996.14
2018-06-17T02:43:55.107Z,996.14
2018-06-17T02:45:05.179Z,996.12
2018-06-17T02:46:15.259Z,996.1
2018-06-17T02:47:25.326Z,996.12
2018-06-17T02:48:35.408Z,996.11
2018-06-17T02:49:45.502Z,996.1
2018-06-17T02:50:55.620Z,996.1
2018-06-17T02:52:05.691Z,996.12
2018-06-17T02:53:15.515Z,996.15
2018-06-17T02:54:25.592Z,996.12
2018-06-17T02:55:35.672Z,996.12
2018-06-17T02:56:45.980Z,996.15
2018-06-17T02:57:56.058Z,996.17
2018-06-17T02:59:05.859Z,996.14
2018-06-17T03:00:15.968Z,996.15
2018-06-17T03:01:26.178Z,996.15
2018-06-17T03:02:36.522Z,996.18
2018-06-17T03:34:50.905Z,996.21
2018-06-17T03:36:00.970Z,996.22
2018-06-17T03:37:11.034Z,996.26
2018-06-17T03:38:20.825Z,996.27
2018-06-17T03:39:30.633Z,996.27
2018-06-17T03:40:40.699Z,996.27
2018-06-17T03:41:50.772Z,996.21
2018-06-17T03:43:00.571Z,996.21
2018-06-17T03:44:10.630Z,996.25
2018-06-17T03:45:20.437Z,996.28
2018-06-17T03:46:30.559Z,996.25
2018-06-17T03:47:40.390Z,996.31
2018-06-17T03:48:50.512Z,996.31
2018-06-17T03:50:00.594Z,996.33
2018-06-17T03:51:10.650Z,996.35
2018-06-17T03:52:20.747Z,996.33
2018-06-17T03:53:30.845Z,996.33
2018-06-17T03:54:40.917Z,996.32
2018-06-17T03:55:50.719Z,996.35
2018-06-17T03:57:00.780Z,996.32
2018-06-17T03:58:10.860Z,996.39
2018-06-17T03:59:20.666Z,996.4
2018-06-17T04:00:30.741Z,996.42
2018-06-17T04:01:40.820Z,996.37
2018-06-17T04:02:50.902Z,996.35
2018-06-17T04:04:01.034Z,996.34
2018-06-17T04:05:11.413Z,996.32
2018-06-17T04:06:21.213Z,996.31
2018-06-17T04:07:31.281Z,996.31
2018-06-17T04:08:41.357Z,996.33
2018-06-17T04:09:51.479Z,996.32
2018-06-17T04:11:01.020Z,996.36
2018-06-17T04:12:10.822Z,996.36
2018-06-17T04:13:20.899Z,996.36
2018-06-17T04:14:30.979Z,996.4
2018-06-17T04:15:41.118Z,996.41
2018-06-17T04:16:51.191Z,996.42
2018-06-17T04:18:01.260Z,996.55
2018-06-17T04:19:11.363Z,996.92
2018-06-17T04:20:20.916Z,997.11
2018-06-17T04:21:31.001Z,997.17
2018-06-17T04:22:40.549Z,997.12
2018-06-17T04:23:50.636Z,997.12
2018-06-17T04:25:00.780Z,997.08
2018-06-17T04:26:10.861Z,997.08
2018-06-17T04:27:20.939Z,997.16
2018-06-17T04:28:31.002Z,997.12
2018-06-17T04:29:41.090Z,997.06
2018-06-17T04:30:51.170Z,997.09
2018-06-17T04:32:01.003Z,997.06
2018-06-17T04:33:11.082Z,997.05
2018-06-17T04:34:21.161Z,997.03
2018-06-17T04:35:30.705Z,996.95
2018-06-17T04:36:40.792Z,996.94
2018-06-17T04:37:50.860Z,996.96
2018-06-17T04:39:00.934Z,996.92
2018-06-17T04:40:11.020Z,996.93
2018-06-17T04:41:21.151Z,996.92
2018-06-17T04:42:30.701Z,996.92
2018-06-17T04:43:40.784Z,996.93
2018-06-17T04:44:50.864Z,996.92
2018-06-17T04:46:00.952Z,996.98
2018-06-17T04:47:10.511Z,997.02
2018-06-17T04:48:20.333Z,996.96
2018-06-17T04:49:30.517Z,997
2018-06-17T04:50:40.650Z,997.05
2018-06-17T04:51:50.731Z,997.07
2018-06-17T04:53:00.819Z,997.11
2018-06-17T04:54:10.916Z,997.16
2018-06-17T04:55:20.987Z,997.12
2018-06-17T04:56:31.069Z,997.14
2018-06-17T04:57:41.144Z,997.22
2018-06-17T04:58:51.241Z,997.24
2018-06-17T05:00:01.388Z,997.28
2018-06-17T05:01:11.662Z,997.24
2018-06-17T05:02:21.734Z,997.32
2018-06-17T05:03:31.293Z,997.36
2018-06-17T05:04:41.384Z,997.32
2018-06-17T05:05:51.487Z,997.29
2018-06-17T05:07:01.567Z,997.24
2018-06-17T05:08:11.637Z,997.26
2018-06-17T05:09:21.710Z,997.23
2018-06-17T05:10:31.804Z,997.21
2018-06-17T05:11:41.880Z,997.16
2018-06-17T05:12:51.424Z,997.12
2018-06-17T05:14:01.543Z,997.18
2018-06-17T05:15:11.628Z,997.15
2018-06-17T05:16:21.728Z,997.16
2018-06-17T05:17:31.810Z,997.22
2018-06-17T05:18:41.894Z,997.22
2018-06-17T05:19:51.713Z,997.29
2018-06-17T05:21:01.546Z,997.27
2018-06-17T05:22:11.635Z,997.27
2018-06-17T05:23:21.457Z,997.35
2018-06-17T05:24:31.286Z,997.94
2018-06-17T05:25:41.360Z,998.16
2018-06-17T05:26:51.457Z,997.95
2018-06-17T05:28:01.279Z,997.93
2018-06-17T05:29:11.090Z,997.89
2018-06-17T05:30:21.172Z,997.7
2018-06-17T05:31:31.245Z,997.72
2018-06-17T05:32:41.326Z,997.87
2018-06-17T05:33:51.422Z,997.76
2018-06-17T05:35:01.473Z,997.71
2018-06-17T05:36:11.305Z,997.81
2018-06-17T05:37:21.388Z,997.77
2018-06-17T05:38:31.446Z,997.72
2018-06-17T05:39:41.250Z,997.69
2018-06-17T05:40:51.076Z,997.7
2018-06-17T05:42:01.176Z,997.7
2018-06-17T05:43:10.998Z,997.76
2018-06-17T05:44:20.804Z,997.76
2018-06-17T05:45:30.895Z,997.69
2018-06-17T05:46:40.975Z,997.71
2018-06-17T05:47:50.795Z,997.74
2018-06-17T05:49:00.603Z,997.77
2018-06-17T05:50:10.429Z,997.8
2018-06-17T05:51:20.556Z,997.74
2018-06-17T05:52:30.693Z,997.69
2018-06-17T05:53:40.255Z,997.69
2018-06-17T05:54:50.353Z,997.76
2018-06-17T05:56:00.499Z,997.69
2018-06-17T05:57:10.580Z,997.64
2018-06-17T05:58:20.699Z,997.67
2018-06-17T05:59:30.762Z,997.68
2018-06-17T06:00:40.609Z,997.73
2018-06-17T06:01:50.701Z,997.69
2018-06-17T06:03:00.513Z,997.56
2018-06-17T06:04:10.588Z,997.58
2018-06-17T06:05:20.676Z,997.58
2018-06-17T06:06:30.764Z,997.61
2018-06-17T06:07:40.582Z,997.6
2018-06-17T06:08:50.394Z,997.57
2018-06-17T06:10:00.508Z,997.58
2018-06-17T06:11:10.323Z,997.61
2018-06-17T06:12:20.160Z,997.51
2018-06-17T06:13:30.053Z,997.55
2018-06-17T06:14:39.866Z,997.56
2018-06-17T06:15:49.942Z,997.57
2018-06-17T06:16:59.501Z,997.57
2018-06-17T06:18:09.583Z,997.55
2018-06-17T06:19:19.657Z,997.54
2018-06-17T06:20:29.741Z,997.53
2018-06-17T06:21:39.814Z,997.48
2018-06-17T06:22:49.621Z,997.53
2018-06-17T06:23:59.750Z,997.56
2018-06-17T06:25:09.580Z,997.55
2018-06-17T06:26:19.713Z,997.56
2018-06-17T06:27:29.554Z,997.54
2018-06-17T06:28:39.639Z,997.5
2018-06-17T06:29:49.446Z,997.51
2018-06-17T06:30:59.589Z,997.5
2018-06-17T06:32:09.887Z,997.49
2018-06-17T06:33:19.702Z,997.48
2018-06-17T06:34:29.810Z,997.48
2018-06-17T06:35:39.960Z,997.5
2018-06-17T06:36:49.777Z,997.5
2018-06-17T06:37:59.602Z,997.47
2018-06-17T06:39:09.417Z,997.47
2018-06-17T06:40:19.480Z,997.43
2018-06-17T06:41:29.302Z,997.41
2018-06-17T06:42:39.141Z,997.44
2018-06-17T06:43:49.287Z,997.42
2018-06-17T06:44:59.093Z,997.43
2018-06-17T06:46:09.194Z,997.41
2018-06-17T06:47:19.289Z,997.43
2018-06-17T06:48:29.109Z,997.43
2018-06-17T06:49:39.178Z,997.39
2018-06-17T06:50:49.293Z,997.42
2018-06-17T06:51:59.785Z,997.43
2018-06-17T06:53:09.885Z,997.45
2018-06-17T06:54:19.985Z,997.42
2018-06-17T06:55:30.096Z,997.45
2018-06-17T06:56:40.193Z,997.44
2018-06-17T06:57:50.030Z,997.38
2018-06-17T06:58:59.629Z,997.4
2018-06-17T07:00:09.697Z,997.39
2018-06-17T07:01:19.789Z,997.4
2018-06-17T07:02:29.875Z,997.42
2018-06-17T07:03:39.431Z,997.46
2018-06-17T07:04:49.565Z,997.45
2018-06-17T07:05:59.625Z,997.47
2018-06-17T07:07:09.452Z,997.49
2018-06-17T07:08:19.248Z,997.47
2018-06-17T07:09:29.058Z,997.39
2018-06-17T07:10:39.200Z,997.42
2018-06-17T07:11:49.271Z,997.44
2018-06-17T07:12:59.358Z,997.42
2018-06-17T07:14:09.438Z,997.42
2018-06-17T07:15:19.536Z,997.41
2018-06-17T07:16:29.104Z,997.4
2018-06-17T07:17:39.201Z,997.46
2018-06-17T07:18:49.028Z,997.44
2018-06-17T07:19:58.857Z,997.45
2018-06-17T07:21:08.671Z,997.48
2018-06-17T07:22:18.770Z,997.48
2018-06-17T07:23:28.588Z,997.45
2018-06-17T07:24:38.664Z,997.45
2018-06-17T07:25:48.473Z,997.48
2018-06-17T07:26:58.308Z,997.5
2018-06-17T07:28:08.449Z,997.51
2018-06-17T07:29:18.282Z,997.46
2018-06-17T07:30:28.112Z,997.48
2018-06-17T07:31:37.698Z,997.43
2018-06-17T07:32:47.798Z,997.41
2018-06-17T07:33:57.916Z,997.4
2018-06-17T07:35:09.004Z,997.38
2018-06-17T07:36:18.834Z,997.38
2018-06-17T07:37:28.948Z,997.39
2018-06-17T07:38:38.771Z,997.42
2018-06-17T07:39:48.834Z,997.36
2018-06-17T07:40:58.931Z,997.38
2018-06-17T07:42:09.030Z,997.34
2018-06-17T07:43:18.835Z,997.36
2018-06-17T07:44:28.926Z,997.4
2018-06-17T07:45:39.024Z,997.33
2018-06-17T07:46:49.126Z,997.35
2018-06-17T07:47:58.944Z,997.41
2018-06-17T07:49:09.018Z,997.43
2018-06-17T07:50:18.871Z,997.44
2018-06-17T07:51:28.954Z,997.42
2018-06-17T07:52:39.034Z,997.42
2018-06-17T07:53:48.853Z,997.49
2018-06-17T07:54:58.943Z,997.45
2018-06-17T07:56:08.825Z,997.47
2018-06-17T07:57:18.589Z,997.45
2018-06-17T07:58:28.683Z,997.46
2018-06-17T07:59:38.767Z,997.43
2018-06-17T08:00:48.876Z,997.44
2018-06-17T08:01:58.975Z,997.42
2018-06-17T08:03:09.048Z,997.43
2018-06-17T08:04:19.134Z,997.41
2018-06-17T08:05:28.955Z,997.4
2018-06-17T08:06:39.032Z,997.42
2018-06-17T08:07:48.611Z,997.44
2018-06-17T08:08:58.693Z,997.42
2018-06-17T08:10:08.796Z,997.41
2018-06-17T08:11:18.866Z,997.32
2018-06-17T08:12:28.431Z,997.28
2018-06-17T08:13:38.521Z,997.33
2018-06-17T08:14:48.609Z,997.32
2018-06-17T08:15:58.499Z,997.28
2018-06-17T08:17:08.326Z,997.27
2018-06-17T08:18:18.411Z,997.28
2018-06-17T08:19:28.502Z,997.24
2018-06-17T08:20:38.593Z,997.25
2018-06-17T08:21:48.684Z,997.24
2018-06-17T08:22:58.774Z,997.28
2018-06-17T08:24:08.845Z,997.21
2018-06-17T08:25:18.674Z,997.38
2018-06-17T08:26:28.816Z,997.23
2018-06-17T08:27:38.900Z,997.15
2018-06-17T08:28:48.745Z,997.23
2018-06-17T08:29:58.585Z,997.14
2018-06-17T08:31:08.681Z,997.17
2018-06-17T08:32:18.521Z,997.18
2018-06-17T08:33:28.605Z,997.17
2018-06-17T08:34:38.692Z,997.13
2018-06-17T08:35:48.786Z,997.16
2018-06-17T08:36:58.605Z,997.16
2018-06-17T08:38:08.466Z,997.06
2018-06-17T08:39:18.564Z,997.06
2018-06-17T08:40:28.130Z,997.19
2018-06-17T08:41:38.221Z,997.09
2018-06-17T08:42:48.309Z,997.05
2018-06-17T08:43:58.437Z,997.06
2018-06-17T08:45:08.714Z,997.14
2018-06-17T08:46:18.814Z,997.12
2018-06-17T08:47:28.894Z,997.18
2018-06-17T08:48:39.005Z,997.12
2018-06-17T08:49:49.090Z,997.15
2018-06-17T08:50:59.175Z,997.3
2018-06-17T08:52:09.257Z,997.14
2018-06-17T08:53:19.330Z,997.13
2018-06-17T08:54:29.173Z,997.12
2018-06-17T08:55:39.275Z,997.14
2018-06-17T08:56:49.116Z,997.1
2018-06-17T08:57:59.211Z,997.07
2018-06-17T08:59:09.295Z,997.06
2018-06-17T09:00:19.693Z,997.04
2018-06-17T09:01:29.800Z,997.12
2018-06-17T09:02:39.976Z,997.02
2018-06-17T09:03:50.231Z,997.09
2018-06-17T09:05:00.303Z,997.04
2018-06-17T09:06:10.125Z,997.02
2018-06-17T09:07:20.197Z,996.99
2018-06-17T09:08:30.264Z,997.06
2018-06-17T09:09:40.347Z,997.01
2018-06-17T09:10:50.449Z,996.96
2018-06-17T09:12:00.259Z,997
2018-06-17T09:13:10.079Z,997.01
2018-06-17T09:14:20.176Z,997
2018-06-17T09:15:29.999Z,996.97
2018-06-17T09:16:40.092Z,997.08
2018-06-17T09:17:50.168Z,996.95
2018-06-17T09:19:00.279Z,996.91
2018-06-17T09:20:10.391Z,996.94
2018-06-17T09:21:20.233Z,996.9
2018-06-17T09:22:30.313Z,996.88
2018-06-17T09:23:40.394Z,996.84
2018-06-17T09:24:50.223Z,996.86
2018-06-17T09:26:00.336Z,996.83
2018-06-17T09:27:10.431Z,996.88
2018-06-17T09:28:20.549Z,996.83
2018-06-17T09:29:30.641Z,996.85
2018-06-17T09:30:40.711Z,996.86
2018-06-17T09:31:50.940Z,996.78
2018-06-17T09:33:01.133Z,996.79
2018-06-17T09:34:10.967Z,996.83
2018-06-17T09:35:20.798Z,996.79
2018-06-17T09:36:30.901Z,996.78
2018-06-17T09:37:41.006Z,996.78
2018-06-17T09:38:50.852Z,996.76
2018-06-17T09:40:00.939Z,996.75
2018-06-17T09:41:11.027Z,996.83
2018-06-17T09:42:21.144Z,996.77
2018-06-17T09:43:31.221Z,996.77
2018-06-17T09:44:41.316Z,996.79
2018-06-17T09:45:51.127Z,996.82
2018-06-17T09:47:01.223Z,996.81
2018-06-17T09:48:11.304Z,996.8
2018-06-17T09:49:20.864Z,996.77
2018-06-17T09:50:30.978Z,996.7
2018-06-17T09:51:41.081Z,996.62
2018-06-17T09:52:50.901Z,996.7
2018-06-17T09:54:01.011Z,996.66
2018-06-17T09:55:11.082Z,996.77
2018-06-17T09:56:21.195Z,996.68
2018-06-17T09:57:31.040Z,996.63
2018-06-17T09:58:41.128Z,996.66
2018-06-17T09:59:51.221Z,996.63
2018-06-17T10:01:00.588Z,996.65
2018-06-17T10:02:10.674Z,996.55
2018-06-17T10:03:20.516Z,996.56
2018-06-17T10:04:30.620Z,996.59
2018-06-17T10:05:40.462Z,996.51
2018-06-17T10:06:50.587Z,996.55
2018-06-17T10:08:00.678Z,996.54
2018-06-17T10:09:10.789Z,996.53
2018-06-17T10:10:20.351Z,996.5
2018-06-17T10:11:30.447Z,996.55
2018-06-17T10:12:40.599Z,996.53
2018-06-17T10:13:50.695Z,996.55
2018-06-17T10:15:00.792Z,996.54
2018-06-17T10:16:10.875Z,996.57
2018-06-17T10:17:20.712Z,996.57
2018-06-17T10:18:30.855Z,996.53
2018-06-17T10:19:40.951Z,996.53
2018-06-17T10:20:51.042Z,996.49
2018-06-17T10:22:00.880Z,996.48
2018-06-17T10:23:10.707Z,996.58
2018-06-17T10:24:20.558Z,996.52
2018-06-17T10:25:30.158Z,996.54
2018-06-17T10:26:40.235Z,996.59
2018-06-17T10:27:50.323Z,996.49
2018-06-17T10:29:00.444Z,996.54
2018-06-17T10:30:10.548Z,996.59
2018-06-17T10:31:20.387Z,996.42
2018-06-17T10:32:30.493Z,996.42
2018-06-17T10:33:40.610Z,996.39
2018-06-17T10:34:50.708Z,996.53
2018-06-17T10:36:00.808Z,996.49
2018-06-17T10:37:10.629Z,996.49
2018-06-17T10:38:20.715Z,996.47
2018-06-17T10:39:30.795Z,996.5
2018-06-17T10:40:40.612Z,996.49
2018-06-17T10:41:50.703Z,996.47
2018-06-17T10:43:00.788Z,996.5
2018-06-17T10:44:10.883Z,996.41
2018-06-17T10:45:21.156Z,996.39
2018-06-17T10:46:31.266Z,996.33
2018-06-17T10:47:41.407Z,996.49
2018-06-17T10:48:51.532Z,996.45
2018-06-17T10:50:01.398Z,996.44
2018-06-17T10:51:11.757Z,996.39
2018-06-17T10:52:21.889Z,996.48
2018-06-17T10:53:32.525Z,996.35
2018-06-17T10:54:42.647Z,996.38
2018-06-17T10:55:53.007Z,996.34
2018-06-17T10:57:04.345Z,996.3
2018-06-17T10:58:15.256Z,996.3
2018-06-17T10:59:25.092Z,996.33
2018-06-17T11:00:34.939Z,996.33
2018-06-17T11:01:44.784Z,996.34
2018-06-17T11:02:54.919Z,996.32
2018-06-17T11:04:05.237Z,996.32
2018-06-17T11:05:15.405Z,996.5
2018-06-17T11:06:25.962Z,996.38
2018-06-17T11:07:36.078Z,996.39
2018-06-17T11:08:46.182Z,996.4
2018-06-17T11:09:56.293Z,996.39
2018-06-17T11:11:06.431Z,996.38
2018-06-17T11:12:16.584Z,996.34
2018-06-17T11:13:26.976Z,996.42
2018-06-17T11:14:37.121Z,996.31
2018-06-17T11:15:47.351Z,996.33
2018-06-17T11:16:57.462Z,996.32
2018-06-17T11:18:07.582Z,996.28
2018-06-17T11:19:17.687Z,996.28
2018-06-17T11:20:27.798Z,996.33
2018-06-17T11:21:37.895Z,996.33
2018-06-17T11:22:47.985Z,996.36
2018-06-17T11:23:58.075Z,996.31
2018-06-17T11:25:08.204Z,996.23
2018-06-17T11:26:18.297Z,996.27
2018-06-17T11:27:28.397Z,996.39
2018-06-17T11:28:38.483Z,996.36
2018-06-17T11:29:48.050Z,996.35
2018-06-17T11:30:57.890Z,996.38
2018-06-17T11:32:08.003Z,996.34
2018-06-17T11:33:18.106Z,996.38
2018-06-17T11:34:28.220Z,996.37
2018-06-17T11:35:38.311Z,996.39
2018-06-17T11:36:48.440Z,996.45
2018-06-17T11:37:58.561Z,996.43
2018-06-17T11:39:08.727Z,996.43
2018-06-17T11:40:19.368Z,996.41
2018-06-17T11:41:29.456Z,996.33
2018-06-17T11:42:39.577Z,996.38
2018-06-17T11:43:49.432Z,996.37
2018-06-17T11:44:59.530Z,996.35
2018-06-17T11:46:09.609Z,996.33
2018-06-17T11:47:19.725Z,996.36
2018-06-17T11:48:29.830Z,996.4
2018-06-17T11:49:39.934Z,996.37
2018-06-17T11:50:49.803Z,996.37
2018-06-17T11:52:00.144Z,996.34
2018-06-17T11:53:10.266Z,996.3
2018-06-17T11:54:20.358Z,996.33
2018-06-17T11:55:30.461Z,996.36
2018-06-17T11:56:40.551Z,996.37
2018-06-17T11:57:50.662Z,996.37
2018-06-17T11:59:00.975Z,996.29
2018-06-17T12:00:11.077Z,996.4
2018-06-17T12:01:21.163Z,996.34
2018-06-17T12:02:31.259Z,996.24
2018-06-17T12:03:41.150Z,996.32
2018-06-17T12:04:51.247Z,996.25
2018-06-17T12:06:01.379Z,996.31
2018-06-17T12:07:11.228Z,996.36
2018-06-17T12:08:21.335Z,996.36
2018-06-17T12:09:31.431Z,996.29
2018-06-17T12:10:41.861Z,996.27
2018-06-17T12:11:51.958Z,996.35
2018-06-17T12:13:02.130Z,996.36
2018-06-17T12:14:11.986Z,996.35
2018-06-17T12:15:22.101Z,996.42
2018-06-17T12:16:32.192Z,996.39
2018-06-17T12:17:42.070Z,996.37
2018-06-17T12:18:52.177Z,996.43
2018-06-17T12:20:02.279Z,996.44
2018-06-17T12:21:12.339Z,996.48
2018-06-17T12:22:22.174Z,996.52
2018-06-17T12:23:32.016Z,996.49
2018-06-17T12:24:42.162Z,996.48
2018-06-17T12:25:52.008Z,996.54
2018-06-17T12:27:02.187Z,996.54
2018-06-17T12:28:12.285Z,996.41
2018-06-17T12:29:22.410Z,996.45
2018-06-17T12:30:32.530Z,996.46
2018-06-17T12:31:42.619Z,996.45
2018-06-17T12:32:52.730Z,996.38
2018-06-17T12:34:02.847Z,996.45
2018-06-17T12:35:12.965Z,996.41
2018-06-17T12:36:23.080Z,996.41
2018-06-17T12:37:33.184Z,996.41
2018-06-17T12:38:43.071Z,996.37
2018-06-17T12:39:53.175Z,996.48
2018-06-17T12:41:03.265Z,996.47
2018-06-17T12:42:13.366Z,996.44
2018-06-17T12:43:23.463Z,996.51
2018-06-17T12:44:33.290Z,996.44
2018-06-17T12:45:43.376Z,996.47
2018-06-17T12:46:53.473Z,996.45
2018-06-17T12:48:03.599Z,996.38
2018-06-17T12:49:13.712Z,996.43
2018-06-17T12:50:23.884Z,996.4
2018-06-17T12:51:34.209Z,996.38
2018-06-17T12:52:44.020Z,996.44
2018-06-17T12:53:53.849Z,996.3
2018-06-17T12:55:03.948Z,996.35
2018-06-17T12:56:13.788Z,996.29
2018-06-17T12:57:23.610Z,996.34
2018-06-17T12:58:33.444Z,996.33
2018-06-17T12:59:43.539Z,996.35
2018-06-17T13:00:53.627Z,996.35
2018-06-17T13:02:03.730Z,996.35
2018-06-17T13:03:13.838Z,996.42
2018-06-17T13:04:23.941Z,996.42
2018-06-17T13:05:34.142Z,996.35
2018-06-17T13:06:44.273Z,996.36
2018-06-17T13:07:54.381Z,996.41
2018-06-17T13:09:04.518Z,996.36
2018-06-17T13:10:14.608Z,996.39
2018-06-17T13:11:24.440Z,996.35
2018-06-17T13:12:34.571Z,996.36
2018-06-17T13:13:44.577Z,996.31
2018-06-17T13:14:54.681Z,996.31
2018-06-17T13:16:04.508Z,996.31
2018-06-17T13:17:14.325Z,996.3
2018-06-17T13:18:24.158Z,996.28
2018-06-17T13:19:34.320Z,996.29
2018-06-17T13:20:44.149Z,996.28
2018-06-17T13:21:53.717Z,996.27
2018-06-17T13:23:03.555Z,996.27
2018-06-17T13:24:13.662Z,996.3
2018-06-17T13:25:23.222Z,996.29
2018-06-17T13:26:33.074Z,996.31
2018-06-17T13:27:43.171Z,996.31
2018-06-17T13:28:53.292Z,996.28
2018-06-17T13:30:03.630Z,996.29
2018-06-17T13:31:13.508Z,996.25
2018-06-17T13:32:23.331Z,996.24
2018-06-17T13:33:33.436Z,996.28
2018-06-17T13:34:43.542Z,996.26
2018-06-17T13:35:53.638Z,996.22
2018-06-17T13:37:03.476Z,996.24
2018-06-17T13:38:13.598Z,996.19
2018-06-17T13:39:23.693Z,996.16
2018-06-17T13:40:33.782Z,996.18
2018-06-17T13:41:43.626Z,996.21
2018-06-17T13:42:53.817Z,996.19
2018-06-17T13:44:03.977Z,996.2
2018-06-17T13:45:14.072Z,996.17
2018-06-17T13:46:24.165Z,996.15
2018-06-17T13:47:34.277Z,996.15
2018-06-17T13:48:44.586Z,996.14
2018-06-17T13:49:54.419Z,996.1
2018-06-17T13:51:04.514Z,996.1
2018-06-17T13:52:14.348Z,996.11
2018-06-17T13:53:24.488Z,996.11
2018-06-17T13:54:34.595Z,996.11
2018-06-17T13:55:44.155Z,996.12
2018-06-17T13:56:54.426Z,996.12
2018-06-17T13:58:04.760Z,996.15
2018-06-17T13:59:14.863Z,996.13
2018-06-17T14:00:25.036Z,996.12
2018-06-17T14:01:35.136Z,996.11
2018-06-17T14:02:45.002Z,996.15
2018-06-17T14:03:55.316Z,996.13
2018-06-17T14:05:05.424Z,996.13
2018-06-17T14:06:15.545Z,996.14
2018-06-17T14:07:25.379Z,996.17
2018-06-17T14:08:35.482Z,996.18
2018-06-17T14:09:45.587Z,996.14
2018-06-17T14:10:55.704Z,996.11
2018-06-17T14:12:05.809Z,996.12
2018-06-17T14:13:15.930Z,996.09
2018-06-17T14:14:26.100Z,996.12
2018-06-17T14:15:35.931Z,996.11
2018-06-17T14:16:46.033Z,996.13
2018-06-17T14:17:56.150Z,996.12
2018-06-17T14:19:06.245Z,996.15
2018-06-17T14:20:16.348Z,996.14
2018-06-17T14:21:26.468Z,996.14
2018-06-17T14:22:36.561Z,996.11
2018-06-17T14:23:46.661Z,996.09
2018-06-17T14:24:56.803Z,996.12
2018-06-17T14:26:06.897Z,996.04
2018-06-17T14:27:16.719Z,996.04
2018-06-17T14:28:26.553Z,996.05
2018-06-17T14:29:36.440Z,996.02
2018-06-17T14:30:46.559Z,996.01
2018-06-17T14:31:56.679Z,995.97
2018-06-17T14:33:06.783Z,996.01
2018-06-17T14:34:16.892Z,996
2018-06-17T14:35:27.018Z,995.99
2018-06-17T14:36:37.114Z,995.99
2018-06-17T14:37:46.957Z,995.97
2018-06-17T14:38:56.844Z,995.94
2018-06-17T14:40:06.944Z,995.94
2018-06-17T14:41:17.082Z,995.95
2018-06-17T14:42:26.941Z,995.98
2018-06-17T14:43:37.031Z,995.97
2018-06-17T14:44:46.893Z,996.01
2018-06-17T14:45:56.987Z,995.96
2018-06-17T14:47:06.852Z,995.95
2018-06-17T14:48:17.032Z,995.99
2018-06-17T14:49:27.159Z,995.97
2018-06-17T14:50:37.256Z,996
2018-06-17T14:51:47.397Z,995.97
2018-06-17T14:52:57.526Z,995.98
2018-06-17T14:54:07.609Z,995.96
2018-06-17T14:55:17.717Z,995.92
2018-06-17T14:56:27.547Z,995.9
2018-06-17T14:57:37.670Z,995.89
2018-06-17T14:58:47.616Z,995.89
2018-06-17T14:59:57.750Z,995.89
2018-06-17T15:01:07.884Z,995.9
2018-06-17T15:02:18.077Z,995.88
2018-06-17T15:03:27.985Z,995.88
2018-06-17T15:04:38.430Z,995.84
2018-06-17T15:05:48.536Z,995.87
2018-06-17T15:06:58.653Z,995.88
2018-06-17T15:08:08.915Z,995.87